Wetterstation Vordersexau
Wetterdaten: Woche 24.10.11 - 30.10.11 (KW43)
Datum Zeit Temp. A. Feuchte A. Luftdruck Regen Wind Richtung Taupunkt Windchill Windben
24.10.2011 00:00 3,3 C 82 % 1011,9 hPa 0,0 l/m 0,0 km/h SW 0,5 C 3,3 C 0,0 km/h
24.10.2011 01:00 3,3 C 82 % 1011,5 hPa 0,0 l/m 0,0 km/h SW 0,5 C 3,3 C 0,0 km/h
24.10.2011 02:00 3,3 C 82 % 1011,3 hPa 0,0 l/m 0,0 km/h NO 0,5 C 3,3 C 0,0 km/h
24.10.2011 03:00 2,9 C 81 % 1010,5 hPa 0,0 l/m 0,0 km/h SO -0,0 C 2,9 C 0,0 km/h
24.10.2011 04:00 2,5 C 81 % 1010,0 hPa 0,0 l/m 0,0 km/h N-NO -0,4 C 2,5 C 0,0 km/h
24.10.2011 05:00 2,1 C 82 % 1009,3 hPa 0,0 l/m 0,0 km/h N -0,6 C 2,1 C 0,0 km/h
24.10.2011 06:00 1,4 C 82 % 1009,1 hPa 0,0 l/m 0,0 km/h O-NO -1,3 C 1,4 C 0,0 km/h
24.10.2011 07:00 1,5 C 82 % 1008,9 hPa 0,0 l/m 0,0 km/h O-NO -1,2 C 1,5 C 0,0 km/h
24.10.2011 08:00 1,6 C 81 % 1008,6 hPa 0,0 l/m 0,0 km/h N-NO -1,3 C 1,6 C 0,0 km/h
24.10.2011 09:00 2,6 C 80 % 1008,5 hPa 0,0 l/m 0,0 km/h W -0,5 C 2,6 C 0,0 km/h
24.10.2011 10:00 4,1 C 80 % 1008,4 hPa 0,0 l/m 0,0 km/h W 1,0 C 4,1 C 0,0 km/h
24.10.2011 11:00 5,0 C 85 % 1007,6 hPa 0,0 l/m 0,0 km/h N-NW 2,7 C 5,0 C 0,0 km/h
24.10.2011 12:00 4,9 C 86 % 1007,3 hPa 0,0 l/m 0,0 km/h W 2,8 C 4,9 C 0,0 km/h
24.10.2011 13:00 5,3 C 85 % 1006,7 hPa 0,0 l/m 0,0 km/h N-NO 3,0 C 5,3 C 0,0 km/h
24.10.2011 14:00 6,7 C 85 % 1005,7 hPa 0,0 l/m 1,9 km/h W 4,4 C 6,7 C 1,1 km/h
24.10.2011 15:00 7,2 C 83 % 1005,0 hPa 0,0 l/m 0,0 km/h W-SW 4,5 C 7,2 C 0,0 km/h
24.10.2011 16:00 7,9 C 82 % 1004,4 hPa 0,0 l/m 0,0 km/h W-SW 5,0 C 7,9 C 0,0 km/h
24.10.2011 17:00 7,1 C 84 % 1004,2 hPa 0,0 l/m 0,0 km/h SW 4,6 C 7,1 C 0,0 km/h
24.10.2011 18:00 5,6 C 85 % 1004,0 hPa 0,0 l/m 0,0 km/h NW 3,3 C 5,6 C 0,0 km/h
24.10.2011 19:00 5,3 C 85 % 1004,2 hPa 0,0 l/m 0,0 km/h NW 3,0 C 5,3 C 0,0 km/h
24.10.2011 20:00 4,9 C 85 % 1003,9 hPa 0,0 l/m 0,0 km/h SO 2,6 C 4,9 C 0,0 km/h
24.10.2011 21:00 4,3 C 84 % 1003,4 hPa 0,0 l/m 0,0 km/h NO 1,8 C 4,3 C 0,0 km/h
24.10.2011 22:00 4,4 C 82 % 1005,2 hPa 0,0 l/m 0,0 km/h NO 1,6 C 4,4 C 0,0 km/h
24.10.2011 23:00 5,5 C 81 % 1002,8 hPa 0,0 l/m 2,6 km/h W 2,5 C 5,5 C 1,4 km/h
25.10.2011 00:00 5,8 C 83 % 1004,2 hPa 0,0 l/m 0,0 km/h W 3,1 C 5,8 C 0,0 km/h
25.10.2011 01:00 5,6 C 83 % 1004,3 hPa 0,0 l/m 0,0 km/h O-NO 2,9 C 5,6 C 0,0 km/h
25.10.2011 02:00 5,8 C 83 % 1003,5 hPa 0,0 l/m 0,0 km/h O-NO 3,1 C 5,8 C 0,0 km/h
25.10.2011 03:00 5,5 C 83 % 1002,4 hPa 0,0 l/m 0,0 km/h W-NW 2,8 C 5,5 C 0,0 km/h
25.10.2011 04:00 5,9 C 83 % 1002,3 hPa 0,0 l/m 0,6 km/h W-SW 3,2 C 5,9 C 0,4 km/h
25.10.2011 05:00 5,5 C 82 % 1003,1 hPa 0,0 l/m 0,0 km/h NO 2,7 C 5,5 C 0,0 km/h
25.10.2011 06:00 5,6 C 81 % 1002,4 hPa 0,0 l/m 0,0 km/h NO 2,6 C 5,6 C 0,0 km/h
25.10.2011 07:00 5,8 C 81 % 1001,3 hPa 0,0 l/m 0,0 km/h NO 2,8 C 5,8 C 0,0 km/h
25.10.2011 08:00 5,7 C 82 % 1001,7 hPa 0,0 l/m 0,0 km/h W-SW 2,9 C 5,7 C 0,0 km/h
25.10.2011 09:00 6,4 C 80 % 1002,3 hPa 0,0 l/m 0,0 km/h W-SW 3,2 C 6,4 C 0,0 km/h
25.10.2011 10:00 7,5 C 82 % 1002,6 hPa 0,0 l/m 0,0 km/h SW 4,6 C 7,5 C 0,0 km/h
25.10.2011 11:00 8,3 C 85 % 1002,2 hPa 0,0 l/m 0,0 km/h NO 5,9 C 8,3 C 0,0 km/h
25.10.2011 12:00 10,1 C 84 % 1001,6 hPa 0,0 l/m 0,0 km/h W-NW 7,5 C 10,1 C 0,0 km/h
25.10.2011 13:00 10,9 C 82 % 1001,5 hPa 0,0 l/m 0,0 km/h W 7,9 C 10,9 C 0,0 km/h
25.10.2011 14:00 11,3 C 78 % 1001,4 hPa 0,0 l/m 0,0 km/h W-NW 7,6 C 11,3 C 0,0 km/h
25.10.2011 15:00 11,6 C 78 % 1001,0 hPa 0,0 l/m 0,0 km/h W-NW 7,9 C 11,6 C 0,0 km/h
25.10.2011 16:00 11,4 C 77 % 1001,1 hPa 0,0 l/m 0,0 km/h W 7,5 C 11,4 C 0,0 km/h
25.10.2011 17:00 10,3 C 80 % 1001,9 hPa 0,0 l/m 0,0 km/h N-NW 7,0 C 10,3 C 0,0 km/h
25.10.2011 18:00 9,2 C 83 % 1002,2 hPa 0,0 l/m 0,0 km/h N-NW 6,5 C 9,2 C 0,0 km/h
25.10.2011 19:00 7,4 C 85 % 1003,1 hPa 0,0 l/m 0,0 km/h N 5,0 C 7,4 C 0,0 km/h
25.10.2011 20:00 6,6 C 85 % 1004,2 hPa 0,0 l/m 0,0 km/h O-NO 4,3 C 6,6 C 0,0 km/h
25.10.2011 21:00 6,8 C 84 % 1004,6 hPa 0,0 l/m 0,0 km/h O-NO 4,3 C 6,8 C 0,0 km/h
25.10.2011 22:00 6,5 C 83 % 1006,0 hPa 0,0 l/m 0,0 km/h O-NO 3,8 C 6,5 C 0,0 km/h
25.10.2011 23:00 6,0 C 83 % 1006,2 hPa 0,0 l/m 0,0 km/h NO 3,3 C 6,0 C 0,0 km/h
26.10.2011 00:00 7,3 C 81 % 1007,5 hPa 0,0 l/m 3,2 km/h NO 4,3 C 7,3 C 1,8 km/h
26.10.2011 01:00 9,9 C 80 % 1008,1 hPa 0,0 l/m 0,0 km/h S-SW 6,6 C 9,9 C 0,0 km/h
26.10.2011 02:00 11,1 C 83 % 1008,9 hPa 0,0 l/m 21,4 km/h W 8,3 C 4,3 C 11,9 km/h
26.10.2011 03:00 11,2 C 79 % 1009,4 hPa 0,0 l/m 16,8 km/h S-SW 7,7 C 5,9 C 9,4 km/h
26.10.2011 04:00 11,1 C 77 % 1009,8 hPa 0,0 l/m 12,3 km/h S-SW 7,2 C 7,6 C 6,8 km/h
26.10.2011 05:00 10,8 C 77 % 1010,6 hPa 0,0 l/m 7,1 km/h S-SW 6,9 C 10,3 C 4,0 km/h
26.10.2011 06:00 10,2 C 78 % 1010,6 hPa 0,0 l/m 16,8 km/h S 6,5 C 4,7 C 9,4 km/h
26.10.2011 07:00 9,9 C 77 % 1011,2 hPa 0,0 l/m 3,2 km/h NO 6,1 C 9,9 C 1,8 km/h
26.10.2011 08:00 8,3 C 80 % 1011,9 hPa 0,0 l/m 2,6 km/h SO 5,1 C 8,3 C 1,4 km/h
26.10.2011 09:00 8,8 C 84 % 1013,0 hPa 0,0 l/m 0,0 km/h SO 6,2 C 8,8 C 0,0 km/h
26.10.2011 10:00 15,1 C 69 % 1013,5 hPa 0,0 l/m 1,3 km/h S-SO 9,5 C 15,1 C 0,7 km/h
26.10.2011 11:00 17,8 C 55 % 1014,0 hPa 0,0 l/m 18,8 km/h W 8,6 C 13,6 C 10,4 km/h
26.10.2011 12:00 18,9 C 51 % 1013,7 hPa 0,0 l/m 1,3 km/h W 8,5 C 18,9 C 0,7 km/h
26.10.2011 13:00 18,8 C 48 % 1013,5 hPa 0,0 l/m 3,9 km/h W-NW 7,6 C 18,8 C 2,2 km/h
26.10.2011 14:00 19,3 C 47 % 1013,2 hPa 0,0 l/m 14,9 km/h N-NW 7,7 C 16,4 C 8,3 km/h
26.10.2011 15:00 20,9 C 43 % 1012,9 hPa 0,0 l/m 0,0 km/h W-NW 7,8 C 20,9 C 0,0 km/h
26.10.2011 16:00 23,0 C 39 % 1012,7 hPa 0,0 l/m 0,0 km/h N 8,3 C 23,0 C 0,0 km/h
26.10.2011 17:00 23,9 C 37 % 1012,8 hPa 0,0 l/m 0,0 km/h O-NO 8,3 C 23,9 C 0,0 km/h
26.10.2011 18:00 11,9 C 63 % 1013,2 hPa 0,0 l/m 0,0 km/h S-SO 5,1 C 11,9 C 0,0 km/h
26.10.2011 19:00 8,2 C 76 % 1013,5 hPa 0,0 l/m 0,0 km/h SO 4,2 C 8,2 C 0,0 km/h
26.10.2011 20:00 6,7 C 81 % 1013,6 hPa 0,0 l/m 0,0 km/h SO 3,7 C 6,7 C 0,0 km/h
26.10.2011 21:00 6,3 C 84 % 1013,2 hPa 0,0 l/m 0,0 km/h O-NO 3,8 C 6,3 C 0,0 km/h
26.10.2011 22:00 5,4 C 84 % 1013,4 hPa 0,0 l/m 0,0 km/h NO 2,9 C 5,4 C 0,0 km/h
26.10.2011 23:00 4,3 C 85 % 1013,6 hPa 0,0 l/m 0,0 km/h NO 2,0 C 4,3 C 0,0 km/h
27.10.2011 00:00 3,8 C 85 % 1013,8 hPa 0,0 l/m 0,0 km/h NO 1,5 C 3,8 C 0,0 km/h
27.10.2011 01:00 2,8 C 85 % 1013,6 hPa 0,0 l/m 0,0 km/h NO 0,5 C 2,8 C 0,0 km/h
27.10.2011 02:00 2,8 C 84 % 1013,6 hPa 0,0 l/m 0,0 km/h O 0,4 C 2,8 C 0,0 km/h
27.10.2011 03:00 2,6 C 84 % 1013,5 hPa 0,0 l/m 0,0 km/h N-NO 0,2 C 2,6 C 0,0 km/h
27.10.2011 04:00 2,9 C 84 % 1012,9 hPa 0,0 l/m 0,0 km/h NO 0,5 C 2,9 C 0,0 km/h
27.10.2011 05:00 1,3 C 84 % 1013,1 hPa 0,0 l/m 0,0 km/h S-SO -1,1 C 1,3 C 0,0 km/h
27.10.2011 06:00 1,0 C 85 % 1013,1 hPa 0,0 l/m 0,0 km/h N-NO -1,2 C 1,0 C 0,0 km/h
27.10.2011 07:00 1,3 C 84 % 1012,5 hPa 0,0 l/m 0,0 km/h W-NW -1,1 C 1,3 C 0,0 km/h
27.10.2011 08:00 1,6 C 83 % 1012,7 hPa 0,0 l/m 0,0 km/h N-NW -1,0 C 1,6 C 0,0 km/h
27.10.2011 09:00 3,1 C 81 % 1013,5 hPa 0,0 l/m 0,0 km/h W-NW 0,2 C 3,1 C 0,0 km/h
27.10.2011 10:00 10,9 C 84 % 1012,9 hPa 0,0 l/m 0,0 km/h W 8,3 C 10,9 C 0,0 km/h
27.10.2011 11:00 12,9 C 71 % 1012,9 hPa 0,0 l/m 0,0 km/h N 7,8 C 12,9 C 0,0 km/h
27.10.2011 12:00 14,3 C 72 % 1013,6 hPa 0,0 l/m 0,0 km/h N 9,3 C 14,3 C 0,0 km/h
27.10.2011 13:00 16,1 C 63 % 1013,3 hPa 0,0 l/m 0,0 km/h N-NW 9,1 C 16,1 C 0,0 km/h
27.10.2011 14:00 17,3 C 59 % 1012,8 hPa 0,0 l/m 0,0 km/h W 9,2 C 17,3 C 0,0 km/h
27.10.2011 15:00 17,4 C 56 % 1012,9 hPa 0,0 l/m 0,0 km/h S-SW 8,5 C 17,4 C 0,0 km/h
27.10.2011 16:00 18,4 C 53 % 1013,2 hPa 0,0 l/m 0,0 km/h NW 8,6 C 18,4 C 0,0 km/h
27.10.2011 17:00 15,2 C 65 % 1013,3 hPa 0,0 l/m 0,0 km/h NW 8,7 C 15,2 C 0,0 km/h
27.10.2011 18:00 9,1 C 75 % 1013,6 hPa 0,0 l/m 0,0 km/h NW 4,9 C 9,1 C 0,0 km/h
27.10.2011 19:00 6,2 C 81 % 1014,4 hPa 0,0 l/m 0,0 km/h NW 3,2 C 6,2 C 0,0 km/h
27.10.2011 20:00 4,9 C 83 % 1015,2 hPa 0,0 l/m 0,0 km/h NW 2,3 C 4,9 C 0,0 km/h
27.10.2011 21:00 4,7 C 84 % 1015,6 hPa 0,0 l/m 0,0 km/h N 2,2 C 4,7 C 0,0 km/h
27.10.2011 22:00 5,2 C 84 % 1016,1 hPa 0,0 l/m 0,0 km/h SO 2,7 C 5,2 C 0,0 km/h
27.10.2011 23:00 5,8 C 84 % 1016,5 hPa 0,0 l/m 1,9 km/h N 3,3 C 5,8 C 1,1 km/h
28.10.2011 00:00 3,6 C 84 % 1017,2 hPa 0,0 l/m 0,0 km/h O-NO 1,2 C 3,6 C 0,0 km/h
28.10.2011 01:00 3,9 C 83 % 1017,4 hPa 0,0 l/m 0,0 km/h SO 1,3 C 3,9 C 0,0 km/h
28.10.2011 02:00 3,7 C 83 % 1017,8 hPa 0,0 l/m 0,0 km/h O-NO 1,1 C 3,7 C 0,0 km/h
28.10.2011 03:00 3,8 C 83 % 1018,3 hPa 0,0 l/m 0,0 km/h O-NO 1,2 C 3,8 C 0,0 km/h
28.10.2011 04:00 3,8 C 82 % 1018,6 hPa 0,0 l/m 0,0 km/h O-NO 1,0 C 3,8 C 0,0 km/h
28.10.2011 05:00 3,6 C 82 % 1018,9 hPa 0,0 l/m 0,0 km/h NO 0,8 C 3,6 C 0,0 km/h
28.10.2011 06:00 3,4 C 82 % 1019,5 hPa 0,0 l/m 0,0 km/h NO 0,6 C 3,4 C 0,0 km/h
28.10.2011 07:00 3,6 C 82 % 1020,2 hPa 0,0 l/m 0,0 km/h NO 0,8 C 3,6 C 0,0 km/h
28.10.2011 08:00 3,6 C 81 % 1020,3 hPa 0,0 l/m 0,0 km/h N-NO 0,7 C 3,6 C 0,0 km/h
28.10.2011 09:00 6,9 C 75 % 1021,3 hPa 0,0 l/m 0,0 km/h NW 2,8 C 6,9 C 0,0 km/h
28.10.2011 10:00 12,7 C 82 % 1022,4 hPa 0,0 l/m 0,0 km/h W-NW 9,7 C 12,7 C 0,0 km/h
28.10.2011 11:00 13,9 C 71 % 1022,6 hPa 0,0 l/m 0,0 km/h W-NW 8,7 C 13,9 C 0,0 km/h
28.10.2011 12:00 17,1 C 64 % 1022,6 hPa 0,0 l/m 0,0 km/h S-SW 10,2 C 17,1 C 0,0 km/h
28.10.2011 13:00 18,0 C 60 % 1023,1 hPa 0,0 l/m 0,0 km/h SW 10,1 C 18,0 C 0,0 km/h
28.10.2011 14:00 20,2 C 56 % 1022,5 hPa 0,0 l/m 0,0 km/h N-NW 11,1 C 20,2 C 0,0 km/h
28.10.2011 15:00 22,3 C 50 % 1022,3 hPa 0,0 l/m 0,0 km/h W-NW 11,4 C 22,3 C 0,0 km/h
28.10.2011 16:00 17,8 C 57 % 1022,5 hPa 0,0 l/m 0,0 km/h N 9,2 C 17,8 C 0,0 km/h
28.10.2011 17:00 16,1 C 64 % 1022,6 hPa 0,0 l/m 0,0 km/h SO 9,3 C 16,1 C 0,0 km/h
28.10.2011 18:00 11,8 C 77 % 1023,1 hPa 0,0 l/m 0,0 km/h SO 7,9 C 11,8 C 0,0 km/h
28.10.2011 19:00 10,4 C 82 % 1023,3 hPa 0,0 l/m 0,0 km/h SO 7,5 C 10,4 C 0,0 km/h
28.10.2011 20:00 9,4 C 82 % 1023,2 hPa 0,0 l/m 0,0 km/h O 6,5 C 9,4 C 0,0 km/h
28.10.2011 21:00 8,2 C 83 % 1023,6 hPa 0,0 l/m 0,0 km/h NO 5,5 C 8,2 C 0,0 km/h
28.10.2011 22:00 7,2 C 84 % 1024,2 hPa 0,0 l/m 0,0 km/h O-NO 4,7 C 7,2 C 0,0 km/h
28.10.2011 23:00 6,6 C 83 % 1024,7 hPa 0,0 l/m 0,0 km/h NO 3,9 C 6,6 C 0,0 km/h
29.10.2011 00:00 6,4 C 83 % 1024,7 hPa 0,0 l/m 0,0 km/h N-NO 3,7 C 6,4 C 0,0 km/h
29.10.2011 01:00 5,9 C 83 % 1024,2 hPa 0,0 l/m 0,0 km/h N-NO 3,2 C 5,9 C 0,0 km/h
29.10.2011 02:00 5,6 C 82 % 1024,3 hPa 0,0 l/m 0,0 km/h NO 2,8 C 5,6 C 0,0 km/h
29.10.2011 03:00 5,8 C 81 % 1024,1 hPa 0,0 l/m 1,3 km/h SO 2,8 C 5,8 C 0,7 km/h
29.10.2011 04:00 5,8 C 81 % 1023,7 hPa 0,0 l/m 0,0 km/h SO 2,8 C 5,8 C 0,0 km/h
29.10.2011 05:00 5,3 C 81 % 1023,9 hPa 0,0 l/m 0,0 km/h N-NO 2,3 C 5,3 C 0,0 km/h
29.10.2011 06:00 4,4 C 81 % 1023,8 hPa 0,0 l/m 0,0 km/h O-SO 1,4 C 4,4 C 0,0 km/h
29.10.2011 07:00 4,2 C 81 % 1023,3 hPa 0,0 l/m 0,0 km/h SO 1,2 C 4,2 C 0,0 km/h
29.10.2011 08:00 4,2 C 81 % 1023,9 hPa 0,0 l/m 0,0 km/h O-NO 1,2 C 4,2 C 0,0 km/h
29.10.2011 09:00 8,3 C 73 % 1023,6 hPa 0,0 l/m 0,0 km/h N 3,8 C 8,3 C 0,0 km/h
29.10.2011 10:00 13,3 C 84 % 1023,3 hPa 0,0 l/m 0,0 km/h N-NW 10,7 C 13,3 C 0,0 km/h
29.10.2011 11:00 17,4 C 67 % 1023,4 hPa 0,0 l/m 0,0 km/h W 11,2 C 17,4 C 0,0 km/h
29.10.2011 12:00 20,1 C 60 % 1023,0 hPa 0,0 l/m 0,0 km/h NW 12,1 C 20,1 C 0,0 km/h
29.10.2011 13:00 17,1 C 63 % 1022,3 hPa 0,0 l/m 0,0 km/h W-NW 10,0 C 17,1 C 0,0 km/h
29.10.2011 14:00 20,4 C 57 % 1021,8 hPa 0,0 l/m 0,0 km/h NW 11,6 C 20,4 C 0,0 km/h
29.10.2011 15:00 22,0 C 51 % 1021,5 hPa 0,0 l/m 0,0 km/h W 11,4 C 22,0 C 0,0 km/h
29.10.2011 16:00 17,8 C 61 % 1021,5 hPa 0,0 l/m 0,0 km/h NW 10,2 C 17,8 C 0,0 km/h
29.10.2011 17:00 15,3 C 71 % 1021,6 hPa 0,0 l/m 0,0 km/h NW 10,1 C 15,3 C 0,0 km/h
29.10.2011 18:00 12,9 C 76 % 1021,7 hPa 0,0 l/m 0,0 km/h NW 8,8 C 12,9 C 0,0 km/h
29.10.2011 19:00 11,8 C 81 % 1022,0 hPa 0,0 l/m 0,0 km/h NW 8,6 C 11,8 C 0,0 km/h
29.10.2011 20:00 11,2 C 83 % 1022,0 hPa 0,0 l/m 0,0 km/h NW 8,4 C 11,2 C 0,0 km/h
29.10.2011 21:00 10,8 C 83 % 1022,0 hPa 0,0 l/m 0,0 km/h SO 8,0 C 10,8 C 0,0 km/h
29.10.2011 22:00 9,8 C 83 % 1022,0 hPa 0,0 l/m 0,0 km/h O-SO 7,1 C 9,8 C 0,0 km/h
29.10.2011 23:00 8,9 C 83 % 1021,6 hPa 0,0 l/m 0,0 km/h O 6,2 C 8,9 C 0,0 km/h
30.10.2011 00:00 7,8 C 83 % 1021,6 hPa 0,0 l/m 0,0 km/h NO 5,1 C 7,8 C 0,0 km/h
30.10.2011 01:00 7,8 C 82 % 1021,9 hPa 0,0 l/m 0,0 km/h O 4,9 C 7,8 C 0,0 km/h
30.10.2011 02:00 8,4 C 80 % 1022,0 hPa 0,0 l/m 0,0 km/h O-NO 5,2 C 8,4 C 0,0 km/h
30.10.2011 03:00 8,6 C 80 % 1021,3 hPa 0,0 l/m 0,0 km/h O 5,3 C 8,6 C 0,0 km/h
30.10.2011 04:00 9,1 C 79 % 1021,2 hPa 0,0 l/m 0,0 km/h O-SO 5,7 C 9,1 C 0,0 km/h
30.10.2011 05:00 8,6 C 80 % 1021,3 hPa 0,0 l/m 0,0 km/h O-SO 5,3 C 8,6 C 0,0 km/h
30.10.2011 06:00 9,1 C 80 % 1021,3 hPa 0,0 l/m 0,0 km/h SO 5,8 C 9,1 C 0,0 km/h
30.10.2011 07:00 9,6 C 81 % 1021,4 hPa 0,0 l/m 0,0 km/h O-NO 6,5 C 9,6 C 0,0 km/h
30.10.2011 08:00 10,2 C 81 % 1021,8 hPa 0,0 l/m 0,0 km/h SO 7,1 C 10,2 C 0,0 km/h
30.10.2011 09:00 11,9 C 84 % 1022,1 hPa 0,0 l/m 3,9 km/h O 9,3 C 11,9 C 2,2 km/h
30.10.2011 10:00 14,8 C 82 % 1022,1 hPa 0,0 l/m 0,0 km/h N 11,8 C 14,8 C 0,0 km/h
30.10.2011 11:00 15,3 C 80 % 1022,1 hPa 0,0 l/m 0,0 km/h N-NW 11,9 C 15,3 C 0,0 km/h
30.10.2011 12:00 17,3 C 75 % 1021,9 hPa 0,0 l/m 0,0 km/h SW 12,8 C 17,3 C 0,0 km/h
30.10.2011 13:00 18,6 C 69 % 1021,3 hPa 0,0 l/m 0,0 km/h SW 12,8 C 18,6 C 0,0 km/h
30.10.2011 14:00 18,2 C 68 % 1021,0 hPa 0,0 l/m 0,0 km/h SW 12,2 C 18,2 C 0,0 km/h
30.10.2011 15:00 16,8 C 70 % 1020,6 hPa 0,0 l/m 0,0 km/h SW 11,3 C 16,8 C 0,0 km/h
30.10.2011 16:00 15,5 C 76 % 1020,4 hPa 0,0 l/m 0,0 km/h S-SW 11,3 C 15,5 C 0,0 km/h
30.10.2011 17:00 13,8 C 80 % 1020,2 hPa 0,0 l/m 0,0 km/h O 10,4 C 13,8 C 0,0 km/h
30.10.2011 18:00 12,9 C 83 % 1020,4 hPa 0,0 l/m 0,0 km/h SO 10,1 C 12,9 C 0,0 km/h
30.10.2011 19:00 12,3 C 83 % 1020,5 hPa 0,0 l/m 0,0 km/h SO 9,5 C 12,3 C 0,0 km/h
30.10.2011 20:00 11,6 C 83 % 1020,3 hPa 0,0 l/m 0,0 km/h NO 8,8 C 11,6 C 0,0 km/h
30.10.2011 21:00 10,9 C 83 % 1020,2 hPa 0,0 l/m 0,0 km/h O-NO 8,1 C 10,9 C 0,0 km/h
30.10.2011 22:00 9,5 C 83 % 1020,1 hPa 0,0 l/m 0,0 km/h O-NO 6,8 C 9,5 C 0,0 km/h
30.10.2011 23:00 8,3 C 83 % 1020,0 hPa 0,0 l/m 0,0 km/h O-NO 5,6 C 8,3 C 0,0 km/h
Min-Datum _ 27.10.11 26.10.11 25.10.11 - 24.10.11 - 24.10.11 27.10.11 24.10.11
_ Min-Zeit 06:30 17:30 15:30 - 00:30 - 06:30 06:30 00:30
Minimum _ 1,0 C 37 % 1001,0 hPa - 0,0 km/h - -1,3 C 1,0 C 0,0 km/h
Max-Datum _ 26.10.11 24.10.11 28.10.11 24.10.11 26.10.11 - 30.10.11 26.10.11 26.10.11
_ Max-Zeit 17:30 12:30 23:30 00:30 02:30 - 12:30 17:30 02:30
Maximum _ 23,9 C 86 % 1024,7 hPa 0,0 l/m 21,4 km/h
W
- 12,8 C 23,9 C 11,9 km/h
W
Durchschnitt _ 9,2 C 77 % 1014,4 hPa #0,0 l/m 0,8 km/h NO 5,2 C 9,0 C 0,5 km/h
www.sexauwetter.de